首页
METAR-TAF:

METAR-TAF

机场 :

Bremerton National Airport

布雷默顿, 华盛顿, 美国

纬度: 47-30N, 经度: 122-45W, 海拔: 147米

当前天气观测

该预报发布于59分钟前的23:56 UTC
风速4节,风向多变
温度 27°C
湿度 45%
气压 1019 hPa
能見度: 16.1公里
天空无云

METAR: KPWT 152356Z AUTO VRB04KT 10SM CLR 27/14 A3008 RMK AO2 SLP185 T02720139 10283 20156 58016

时间: 17:55 (00:55 UTC)

预报

该预报发布于1小时和35分钟前的23:20 UTC
预报有效从16日的 00点(UTC)到 16日的 24点(UTC)
风速5节,风向多变
能見度: 10公里
天空无云
从 16日的 0300点(UTC)
风速4节,风向东北
能見度: 10公里
天空无云
从 16日的 1200点(UTC)
风速3节,风向多变
能見度: 10公里
散云层高于700英尺
短暂存在
从 16日的 12点(UTC)到 16日的 16点(UTC)
多云层高于700英尺
从 16日的 1900点(UTC)
风速5节,风向东北
能見度: 10公里
天空无云

TAF: KPWT 152320Z 1600/1624 VRB05KT P6SM SKC FM160300 05004KT P6SM SKC FM161200 VRB03KT P6SM SCT007 TEMPO 1612/1616 BKN007 FM161900 04005KT P6SM SKC

超过4000个机场的气象观测和天气预报(METAR&TAF报告)。

可查询的气象台以黄色和红色小点在地图上表示。

将鼠标移到小点上方,可查看气象台名称。

然后点击查看天气观测和预报。

如需切换地图:点击带黑十字的绿色按钮放大地图;点击带横线的绿色按钮缩小地图;或者点击绿色箭头查看邻近地区的地图。


METAR-TAF: